Time;durP1;ratioP1;P1;durP2;ratioP2;P2;SDS_P1;SDS_P2;PMS_P1;PMS_P2;Temp;Humidity;BMP_temperature;BMP_pressure;BME280_temperature;BME280_humidity;BME280_pressure;Samples;Min_cycle;Max_cycle;Signal;HPM_P1;HPM_P2
2023/09/09 00:02:24;;;;;;;15.18;13.80;;;;;;;19.17;100.00;101417.81;4982157;28;20090;-67
2023/09/09 00:04:52;;;;;;;15.13;13.68;;;;;;;19.14;100.00;101423.03;4972929;28;20050;-67
2023/09/09 00:07:17;;;;;;;16.38;14.48;;;;;;;19.12;100.00;101422.16;4981711;28;20098;-67
2023/09/09 00:09:43;;;;;;;15.45;14.15;;;;;;;19.10;100.00;101413.38;4970687;28;20122;-67
2023/09/09 00:12:08;;;;;;;16.58;15.00;;;;;;;19.05;100.00;101412.47;4989000;28;20049;-67
2023/09/09 00:14:34;;;;;;;16.92;15.38;;;;;;;19.00;100.00;101403.66;4994329;28;20385;-67
2023/09/09 00:16:59;;;;;;;18.92;15.88;;;;;;;18.96;100.00;101410.63;4982173;28;20561;-66
2023/09/09 00:19:25;;;;;;;17.25;15.68;;;;;;;18.92;100.00;101412.41;4986016;28;20022;-67
2023/09/09 00:21:50;;;;;;;16.08;14.57;;;;;;;18.87;100.00;101408.81;4990527;28;20040;-66
2023/09/09 00:24:16;;;;;;;16.10;14.55;;;;;;;18.85;100.00;101407.97;4987504;28;20059;-66
2023/09/09 00:26:41;;;;;;;16.88;15.27;;;;;;;18.83;100.00;101404.44;4970683;28;20452;-67
2023/09/09 00:29:06;;;;;;;21.67;19.48;;;;;;;18.82;100.00;101405.31;4970848;28;20023;-67
2023/09/09 00:31:32;;;;;;;23.95;21.52;;;;;;;18.86;100.00;101412.34;4971367;28;20022;-66
2023/09/09 00:33:57;;;;;;;25.02;22.83;;;;;;;18.82;100.00;101397.44;4971335;28;20015;-66
2023/09/09 00:36:22;;;;;;;26.80;24.50;;;;;;;18.83;100.00;101401.81;4970598;28;20454;-67
2023/09/09 00:38:47;;;;;;;27.13;24.45;;;;;;;18.82;100.00;101402.69;4971513;28;20074;-66
2023/09/09 00:41:17;;;;;;;27.85;25.23;;;;;;;18.81;100.00;101398.31;4962839;28;20042;-67
2023/09/09 00:43:46;;;;;;;23.17;20.98;;;;;;;18.78;100.00;101398.28;4973970;28;20031;-67
2023/09/09 00:46:13;;;;;;;22.92;20.65;;;;;;;18.77;100.00;101399.16;4970873;28;20467;-67
2023/09/09 00:48:38;;;;;;;23.45;21.27;;;;;;;18.76;100.00;101402.66;4970414;28;20499;-67
2023/09/09 00:51:05;;;;;;;23.55;21.30;;;;;;;18.75;100.00;101403.50;4970307;28;20035;-64
2023/09/09 00:53:34;;;;;;;23.50;21.15;;;;;;;18.74;100.00;101405.28;4974891;28;20037;-67
2023/09/09 00:56:00;;;;;;;25.63;23.05;;;;;;;18.74;100.00;101401.75;4978225;28;20106;-67
2023/09/09 00:58:25;;;;;;;26.77;24.45;;;;;;;18.74;100.00;101401.75;4972628;28;20023;-67
2023/09/09 01:00:50;;;;;;;28.08;25.23;;;;;;;18.72;100.00;101405.25;4989206;28;20033;-67
2023/09/09 01:03:16;;;;;;;27.98;25.30;;;;;;;18.72;100.00;101400.00;4986883;28;20041;-67
2023/09/09 01:05:41;;;;;;;25.77;23.58;;;;;;;18.72;100.00;101399.13;4970880;28;20023;-67
2023/09/09 01:08:06;;;;;;;24.33;22.13;;;;;;;18.70;100.00;101399.13;4972229;28;20118;-65
2023/09/09 01:10:32;;;;;;;25.77;23.35;;;;;;;18.69;100.00;101399.97;4980857;28;20493;-66
2023/09/09 01:12:57;;;;;;;26.02;23.52;;;;;;;18.68;100.00;101406.09;4969786;28;20046;-66
2023/09/09 01:15:22;;;;;;;28.83;26.38;;;;;;;18.67;100.00;101403.47;4978672;28;20060;-66
2023/09/09 01:17:49;;;;;;;31.52;28.55;;;;;;;18.66;100.00;101402.59;4988758;28;20383;-67
2023/09/09 01:20:17;;;;;;;33.85;30.52;;;;;;;18.64;100.00;101399.06;4988686;28;20032;-67
2023/09/09 01:22:44;;;;;;;34.08;30.85;;;;;;;18.63;100.00;101404.31;4988370;28;20493;-67
2023/09/09 01:25:11;;;;;;;31.48;28.67;;;;;;;18.60;100.00;101394.69;4997200;28;20036;-66
2023/09/09 01:27:36;;;;;;;31.15;28.13;;;;;;;18.58;100.00;101391.16;4990687;28;20049;-65
2023/09/09 01:30:03;;;;;;;30.27;27.48;;;;;;;18.52;100.00;101396.34;4979087;28;20387;-67
2023/09/09 01:32:29;;;;;;;33.90;30.73;;;;;;;18.50;100.00;101393.72;4986599;28;20026;-67
2023/09/09 01:34:55;;;;;;;31.08;28.27;;;;;;;18.46;100.00;101391.94;4988658;28;20037;-67
2023/09/09 01:37:20;;;;;;;31.27;28.30;;;;;;;18.41;100.00;101389.28;4988631;28;20054;-66
2023/09/09 01:39:46;;;;;;;32.05;29.10;;;;;;;18.38;100.00;101386.63;4988574;28;20599;-66
2023/09/09 01:42:11;;;;;;;31.27;28.45;;;;;;;18.36;100.00;101389.25;4987828;28;20027;-67
2023/09/09 01:44:37;;;;;;;29.58;26.80;;;;;;;18.34;100.00;101395.34;4977769;28;20541;-66
2023/09/09 01:47:02;;;;;;;31.52;28.52;;;;;;;18.30;100.00;101397.06;4974713;28;20047;-67
2023/09/09 01:49:27;;;;;;;30.13;27.42;;;;;;;18.30;100.00;101390.91;4969218;28;20029;-66
2023/09/09 01:51:52;;;;;;;31.05;27.95;;;;;;;18.27;100.00;101394.41;4971786;28;20490;-65
2023/09/09 01:54:18;;;;;;;31.10;28.45;;;;;;;18.27;100.00;101396.16;4979349;28;20035;-65
2023/09/09 01:56:43;;;;;;;33.88;30.67;;;;;;;18.25;100.00;101388.28;4974655;28;20050;-66
2023/09/09 01:59:08;;;;;;;35.55;32.10;;;;;;;18.22;100.00;101399.59;4976751;28;20030;-66
2023/09/09 02:01:34;;;;;;;38.50;34.95;;;;;;;18.21;100.00;101392.59;4988007;28;20018;-66
2023/09/09 02:03:59;;;;;;;41.95;38.38;;;;;;;18.19;100.00;101399.59;4978637;28;20094;-66
2023/09/09 02:06:27;;;;;;;49.25;44.70;;;;;;;18.19;100.00;101393.44;4988148;28;20068;-67
2023/09/09 02:08:52;;;;;;;53.50;48.42;;;;;;;18.18;100.00;101392.59;4987296;28;20062;-66
2023/09/09 02:11:17;;;;;;;54.97;49.65;;;;;;;18.15;100.00;101386.44;4982471;28;20113;-67
2023/09/09 02:13:43;;;;;;;53.85;48.45;;;;;;;18.13;100.00;101389.03;4969238;28;20486;-65
2023/09/09 02:16:08;;;;;;;55.53;50.05;;;;;;;18.13;100.00;101389.03;4995020;28;20026;-67
2023/09/09 02:18:37;;;;;;;57.05;51.72;;;;;;;18.12;100.00;101387.25;4968345;28;20117;-66
2023/09/09 02:21:05;;;;;;;54.63;49.58;;;;;;;18.11;100.00;101390.75;4968912;28;20023;-65
2023/09/09 02:23:30;;;;;;;54.78;49.55;;;;;;;18.08;100.00;101388.09;4981297;28;20023;-66
2023/09/09 02:25:56;;;;;;;49.78;44.65;;;;;;;18.08;100.00;101385.47;4969534;28;20382;-66
2023/09/09 02:28:21;;;;;;;47.13;42.80;;;;;;;18.04;100.00;101388.94;4968696;28;20051;-65
2023/09/09 02:30:46;;;;;;;48.55;43.90;;;;;;;18.00;100.00;101391.53;4967882;28;20541;-67
2023/09/09 02:33:13;;;;;;;48.72;44.35;;;;;;;17.99;100.00;101392.38;4968693;28;20102;-67
2023/09/09 02:35:43;;;;;;;50.92;46.10;;;;;;;17.99;100.00;101397.63;4969063;28;20406;-67
2023/09/09 02:38:08;;;;;;;46.20;41.83;;;;;;;17.99;100.00;101389.75;4969215;28;20043;-66
2023/09/09 02:40:34;;;;;;;45.95;41.55;;;;;;;17.97;100.00;101396.72;4968407;28;20042;-64
2023/09/09 02:42:59;;;;;;;39.65;35.95;;;;;;;17.97;100.00;101394.09;4981152;28;20521;-67
2023/09/09 02:45:25;;;;;;;37.83;34.45;;;;;;;17.96;100.00;101396.69;4976294;28;20035;-67
2023/09/09 02:47:50;;;;;;;39.08;35.47;;;;;;;17.94;100.00;101394.06;4986177;28;20049;-67
2023/09/09 02:50:15;;;;;;;38.97;35.40;;;;;;;17.92;100.00;101397.56;4987487;28;20265;-66
2023/09/09 02:52:40;;;;;;;44.13;40.05;;;;;;;17.92;100.00;101401.03;4986711;28;20033;-67
2023/09/09 02:55:06;;;;;;;45.38;41.17;;;;;;;17.90;100.00;101397.50;4978265;28;20514;-67
2023/09/09 02:57:31;;;;;;;48.72;44.28;;;;;;;17.87;100.00;101397.50;4976120;28;20026;-66
2023/09/09 02:59:57;;;;;;;47.00;42.50;;;;;;;17.85;100.00;101391.34;4980622;28;20034;-66
2023/09/09 03:02:22;;;;;;;47.78;43.47;;;;;;;17.82;100.00;101397.47;4976705;28;20026;-67
2023/09/09 03:04:47;;;;;;;46.28;42.20;;;;;;;17.77;100.00;101394.75;4972575;28;20023;-67
2023/09/09 03:07:13;;;;;;;47.67;43.17;;;;;;;17.74;100.00;101391.22;4969031;28;20030;-65
2023/09/09 03:09:38;;;;;;;47.47;43.17;;;;;;;17.70;100.00;101390.31;4968258;28;20042;-66
2023/09/09 03:12:05;;;;;;;47.67;43.10;;;;;;;17.69;100.00;101392.94;4972718;28;20023;-67
2023/09/09 03:14:30;;;;;;;49.65;44.97;;;;;;;17.66;100.00;101388.53;4972411;28;20031;-66
2023/09/09 03:16:56;;;;;;;49.65;44.88;;;;;;;17.65;100.00;101397.25;4977126;28;20158;-67
2023/09/09 03:19:21;;;;;;;49.38;44.78;;;;;;;17.64;100.00;101400.75;4972697;28;20034;-67
2023/09/09 03:21:47;;;;;;;58.03;52.22;;;;;;;17.62;100.00;101390.25;4959547;28;20026;-65
2023/09/09 03:24:12;;;;;;;60.83;54.88;;;;;;;17.62;100.00;101394.59;4972730;28;20458;-65
2023/09/09 03:26:37;;;;;;;57.60;52.28;;;;;;;17.62;100.00;101386.75;4968060;28;20034;-66
2023/09/09 03:29:03;;;;;;;64.57;58.40;;;;;;;17.60;100.00;101391.09;4968532;28;20409;-66
2023/09/09 03:31:28;;;;;;;60.25;54.60;;;;;;;17.59;100.00;101394.56;4976598;28;20030;-67
2023/09/09 03:33:53;;;;;;;64.25;58.05;;;;;;;17.58;100.00;101396.31;4972695;28;20042;-66
2023/09/09 03:36:18;;;;;;;63.83;57.63;;;;;;;17.58;100.00;101393.69;4968328;28;20483;-66
2023/09/09 03:38:44;;;;;;;61.30;55.38;;;;;;;17.57;100.00;101393.69;4968271;28;20046;-67
2023/09/09 03:41:09;;;;;;;62.13;56.00;;;;;;;17.56;100.00;101386.69;4969054;28;20109;-65
2023/09/09 03:43:36;;;;;;;63.08;56.95;;;;;;;17.52;100.00;101386.63;4971141;28;20031;-67
2023/09/09 03:46:01;;;;;;;62.83;56.70;;;;;;;17.52;100.00;101388.41;4971980;28;20019;-66
2023/09/09 03:48:26;;;;;;;61.05;55.13;;;;;;;17.47;100.00;101390.94;4971895;28;20041;-66
2023/09/09 03:51:00;;;;;;;59.55;53.70;;;;;;;17.45;100.00;101395.28;4971672;28;20034;-66
2023/09/09 03:53:25;;;;;;;55.20;49.95;;;;;;;17.45;100.00;101395.28;4987931;28;20026;-66
2023/09/09 03:55:51;;;;;;;60.13;54.10;;;;;;;17.43;100.00;101394.38;4977780;28;20497;-67
2023/09/09 03:58:16;;;;;;;59.20;53.42;;;;;;;17.42;100.00;101394.34;4978331;28;20430;-67
2023/09/09 04:00:41;;;;;;;58.60;52.95;;;;;;;17.40;100.00;101396.97;4990622;28;20109;-66
2023/09/09 04:03:07;;;;;;;58.35;52.50;;;;;;;17.37;100.00;101396.94;4990906;28;20030;-66
2023/09/09 04:05:32;;;;;;;59.65;54.10;;;;;;;17.35;100.00;101398.66;4990517;28;20081;-64
2023/09/09 04:07:58;;;;;;;58.22;52.65;;;;;;;17.34;100.00;101399.53;4989626;28;20509;-67
2023/09/09 04:10:24;;;;;;;60.58;54.58;;;;;;;17.33;100.00;101402.97;4971809;28;20493;-66
2023/09/09 04:12:49;;;;;;;61.17;54.95;;;;;;;17.30;100.00;101402.94;4985086;28;20034;-67
2023/09/09 04:15:14;;;;;;;60.17;54.30;;;;;;;17.26;100.00;101400.31;4983001;28;20042;-66
2023/09/09 04:17:40;;;;;;;60.25;54.25;;;;;;;17.24;100.00;101391.53;4971178;28;20023;-67
2023/09/09 04:20:08;;;;;;;61.60;55.40;;;;;;;17.20;100.00;101392.34;4978611;28;20477;-65
2023/09/09 04:22:34;;;;;;;60.40;54.50;;;;;;;17.17;100.00;101397.56;4977521;28;20371;-67
2023/09/09 04:24:59;;;;;;;59.75;53.95;;;;;;;17.11;100.00;101395.72;4990075;28;20109;-67
2023/09/09 04:27:25;;;;;;;60.30;54.45;;;;;;;17.07;100.00;101396.50;4989668;28;20054;-66
2023/09/09 04:29:51;;;;;;;61.78;55.38;;;;;;;17.04;100.00;101399.97;4989962;28;20053;-65
2023/09/09 04:32:16;;;;;;;60.13;54.13;;;;;;;17.00;100.00;101398.16;4989583;28;20041;-66
2023/09/09 04:34:41;;;;;;;61.15;54.80;;;;;;;16.97;100.00;101395.50;4989961;28;20041;-66
2023/09/09 04:37:06;;;;;;;60.72;54.70;;;;;;;16.95;100.00;101391.97;4989512;28;20022;-66
2023/09/09 04:39:32;;;;;;;58.90;53.35;;;;;;;16.93;100.00;101396.31;4990246;28;20465;-67
2023/09/09 04:41:57;;;;;;;59.33;53.40;;;;;;;16.89;100.00;101408.47;4988349;28;20397;-67
2023/09/09 04:44:22;;;;;;;55.03;49.58;;;;;;;16.85;100.00;101398.84;4970444;28;20172;-66
2023/09/09 04:46:48;;;;;;;55.97;50.63;;;;;;;16.82;100.00;101400.53;4971859;28;20027;-64
2023/09/09 04:49:15;;;;;;;54.45;49.08;;;;;;;16.77;100.00;101406.56;4989994;28;20057;-66
2023/09/09 04:51:40;;;;;;;55.35;49.83;;;;;;;16.74;100.00;101408.25;4989155;28;20236;-66
2023/09/09 04:54:06;;;;;;;56.83;51.22;;;;;;;16.72;100.00;101408.22;4985726;28;20475;-66
2023/09/09 04:56:31;;;;;;;55.15;49.72;;;;;;;16.72;100.00;101408.22;4983170;28;20037;-65
2023/09/09 04:58:56;;;;;;;54.70;49.25;;;;;;;16.74;100.00;101410.88;4968989;28;20132;-67
2023/09/09 05:01:21;;;;;;;59.65;53.85;;;;;;;16.73;100.00;101409.97;4981396;28;20077;-66
2023/09/09 05:03:47;;;;;;;57.53;52.22;;;;;;;16.68;100.00;101406.41;4981153;28;20385;-67
2023/09/09 05:06:12;;;;;;;58.92;53.22;;;;;;;16.64;100.00;101415.09;4984858;28;20034;-65
2023/09/09 05:08:37;;;;;;;58.67;52.88;;;;;;;16.60;100.00;101415.88;4980949;28;20049;-66
2023/09/09 05:11:03;;;;;;;61.85;55.80;;;;;;;16.55;100.00;101416.69;4985429;28;20049;-66
2023/09/09 05:13:28;;;;;;;60.10;54.05;;;;;;;16.53;100.00;101413.16;4985942;28;20041;-66
2023/09/09 05:15:53;;;;;;;56.15;51.00;;;;;;;16.49;100.00;101415.72;4985668;28;20085;-64
2023/09/09 05:18:19;;;;;;;56.03;50.67;;;;;;;16.45;100.00;101420.00;4992211;28;20034;-64
2023/09/09 05:20:44;;;;;;;52.17;47.17;;;;;;;16.44;100.00;101423.50;4991278;28;20058;-66
2023/09/09 05:23:09;;;;;;;51.50;46.53;;;;;;;16.43;100.00;101421.72;4985019;28;20022;-66
2023/09/09 05:25:35;;;;;;;53.05;48.05;;;;;;;16.38;100.00;101419.03;4984844;28;20383;-66
2023/09/09 05:28:00;;;;;;;52.67;47.70;;;;;;;16.35;100.00;101418.09;4984941;28;20099;-67
2023/09/09 05:30:25;;;;;;;51.55;46.63;;;;;;;16.35;100.00;101424.22;4985376;28;20054;-66
2023/09/09 05:32:50;;;;;;;51.30;46.50;;;;;;;16.32;100.00;101422.41;4978484;28;20026;-67
2023/09/09 05:35:16;;;;;;;51.10;46.20;;;;;;;16.29;100.00;101424.97;4983705;28;20411;-66
2023/09/09 05:37:42;;;;;;;51.88;46.85;;;;;;;16.29;100.00;101430.22;4974879;28;20027;-66
2023/09/09 05:40:08;;;;;;;53.25;48.17;;;;;;;16.29;100.00;101431.94;4984780;28;20049;-65
2023/09/09 05:42:34;;;;;;;55.70;50.30;;;;;;;16.28;100.00;101431.06;4973948;28;20077;-66
2023/09/09 05:44:59;;;;;;;60.97;54.90;;;;;;;16.30;100.00;101431.06;4985832;28;20517;-67
2023/09/09 05:47:25;;;;;;;55.65;50.25;;;;;;;16.32;100.00;101437.22;4976720;28;20126;-66
2023/09/09 05:49:50;;;;;;;57.50;52.05;;;;;;;16.34;100.00;101438.13;4985121;28;20375;-66
2023/09/09 05:52:15;;;;;;;56.08;50.55;;;;;;;16.35;100.00;101433.78;4977918;28;20026;-67
2023/09/09 05:54:42;;;;;;;57.17;51.33;;;;;;;16.35;100.00;101433.78;4978892;28;20282;-66
2023/09/09 05:57:08;;;;;;;56.85;51.38;;;;;;;16.37;100.00;101438.16;4985792;28;20022;-66
2023/09/09 05:59:34;;;;;;;55.20;49.95;;;;;;;16.41;100.00;101440.00;4984110;28;20458;-64
2023/09/09 06:01:59;;;;;;;57.58;52.10;;;;;;;16.46;100.00;101447.06;4967048;28;20274;-66
2023/09/09 06:04:24;;;;;;;56.67;51.22;;;;;;;16.46;100.00;101447.91;4976944;28;20040;-66
2023/09/09 06:06:50;;;;;;;55.67;50.33;;;;;;;16.48;100.00;101446.22;4969661;28;20438;-67
2023/09/09 06:09:15;;;;;;;60.10;54.33;;;;;;;16.49;100.00;101450.59;4978844;28;20029;-66
2023/09/09 06:11:41;;;;;;;70.55;63.33;;;;;;;16.51;100.00;101451.50;4976001;28;20022;-67
2023/09/09 06:14:06;;;;;;;86.28;75.55;;;;;;;16.54;100.00;101451.56;4990635;28;20026;-66
2023/09/09 06:16:32;;;;;;;91.97;81.28;;;;;;;16.59;100.00;101454.25;4997203;28;20030;-66
2023/09/09 06:18:57;;;;;;;100.38;87.47;;;;;;;16.65;100.00;101450.84;4985141;28;20030;-66
2023/09/09 06:21:24;;;;;;;103.35;89.07;;;;;;;16.71;100.00;101457.94;4984386;28;20057;-65
2023/09/09 06:23:49;;;;;;;104.25;91.90;;;;;;;16.78;100.00;101458.03;4985345;28;20026;-66
2023/09/09 06:26:14;;;;;;;98.70;87.93;;;;;;;16.85;100.00;101459.03;4984290;28;20461;-67
2023/09/09 06:28:40;;;;;;;99.30;87.85;;;;;;;16.91;100.00;101460.84;4985602;28;20054;-66
2023/09/09 06:31:05;;;;;;;97.07;86.93;;;;;;;16.97;100.00;101471.41;4984655;28;20619;-65
2023/09/09 06:33:30;;;;;;;94.65;84.72;;;;;;;17.03;100.00;101465.41;4985373;28;20269;-65
2023/09/09 06:35:55;;;;;;;92.28;83.13;;;;;;;17.11;100.00;101473.38;4984128;28;20059;-67
2023/09/09 06:38:21;;;;;;;91.82;82.70;;;;;;;17.21;100.00;101469.19;4985961;28;20094;-66
2023/09/09 06:40:47;;;;;;;90.68;81.78;;;;;;;17.31;100.00;101475.41;4983110;28;20035;-67
2023/09/09 06:43:15;;;;;;;93.15;84.28;;;;;;;17.40;100.00;101476.44;4985263;28;20038;-66
2023/09/09 06:45:41;;;;;;;90.40;81.70;;;;;;;17.51;100.00;101473.06;4984702;28;20374;-67
2023/09/09 06:48:06;;;;;;;90.18;81.40;;;;;;;17.63;100.00;101472.34;4985154;28;20030;-67
2023/09/09 06:50:32;;;;;;;89.72;81.13;;;;;;;17.74;100.00;101485.56;4983318;28;20509;-67
2023/09/09 06:52:57;;;;;;;91.25;82.63;;;;;;;17.79;100.00;101478.66;4980215;28;20038;-66
2023/09/09 06:55:22;;;;;;;93.10;84.43;;;;;;;17.83;100.00;101484.81;4981044;28;20082;-67
2023/09/09 06:57:48;;;;;;;92.75;84.45;;;;;;;17.85;100.00;101488.34;4967626;28;20419;-66
2023/09/09 07:00:13;;;;;;;92.88;84.53;;;;;;;17.87;100.00;101489.22;4968718;28;20026;-66
2023/09/09 07:02:40;;;;;;;94.97;86.32;;;;;;;17.87;100.00;101491.84;4976817;28;20034;-67
2023/09/09 07:05:06;;;;;;;103.63;93.75;;;;;;;17.85;100.00;101493.56;4981087;28;20097;-67
2023/09/09 07:07:31;;;;;;;106.75;96.53;;;;;;;17.88;100.00;101493.63;4968993;28;20086;-66
2023/09/09 07:09:57;;;;;;;103.60;93.78;;;;;;;17.90;100.00;101494.50;4968785;28;20019;-66
2023/09/09 07:12:22;;;;;;;105.03;95.22;;;;;;;17.94;100.00;101500.66;4968683;28;20026;-66
2023/09/09 07:14:47;;;;;;;109.38;98.90;;;;;;;17.97;100.00;101493.72;4984989;28;20026;-66
2023/09/09 07:17:13;;;;;;;111.22;100.32;;;;;;;18.03;100.00;101507.75;4987914;28;20030;-65
2023/09/09 07:19:38;;;;;;;106.55;96.22;;;;;;;18.04;100.00;101499.94;4990060;28;20014;-67
2023/09/09 07:22:04;;;;;;;107.93;97.90;;;;;;;18.05;100.00;101493.81;4990672;28;20049;-67
2023/09/09 07:24:29;;;;;;;108.40;97.80;;;;;;;18.11;100.00;101503.50;4988046;28;20472;-65
2023/09/09 07:26:55;;;;;;;107.90;97.63;;;;;;;18.18;100.00;101507.09;4989815;28;20042;-66
2023/09/09 07:29:20;;;;;;;107.18;97.10;;;;;;;18.19;100.00;101507.09;4988299;28;20167;-67
2023/09/09 07:31:46;;;;;;;112.90;102.20;;;;;;;18.24;100.00;101513.28;4989586;28;20038;-67
2023/09/09 07:34:11;;;;;;;113.32;102.53;;;;;;;18.28;100.00;101508.06;4986574;28;20418;-66
2023/09/09 07:36:36;;;;;;;116.53;105.28;;;;;;;18.36;100.00;101503.78;4989567;28;20030;-67
2023/09/09 07:39:01;;;;;;;114.25;103.30;;;;;;;18.46;100.00;101512.63;4979410;28;20036;-67
2023/09/09 07:41:28;;;;;;;113.85;102.53;;;;;;;18.57;100.00;101513.59;4989409;28;20041;-66
2023/09/09 07:43:53;;;;;;;110.35;99.72;;;;;;;18.70;100.00;101521.59;4982839;28;20484;-67
2023/09/09 07:46:18;;;;;;;109.78;99.07;;;;;;;18.80;100.00;101517.28;4986919;28;20030;-66
2023/09/09 07:48:43;;;;;;;113.10;102.50;;;;;;;18.98;100.00;101520.94;4983150;28;20466;-67
2023/09/09 07:51:09;;;;;;;119.85;108.82;;;;;;;19.35;100.00;101525.59;4987734;28;20026;-67
2023/09/09 07:53:34;;;;;;;115.72;104.65;;;;;;;19.66;100.00;101526.66;4983915;28;20064;-67
2023/09/09 07:55:59;;;;;;;107.47;97.57;;;;;;;19.99;100.00;101529.41;4974324;28;20026;-67
2023/09/09 07:58:25;;;;;;;106.80;97.05;;;;;;;20.43;100.00;101529.56;4984052;28;20505;-67
2023/09/09 08:01:06;;;;;;;98.78;90.00;;;;;;;20.95;100.00;101532.25;4973792;28;20151;-67
2023/09/09 08:03:32;;;;;;;96.75;87.72;;;;;;;21.33;100.00;101530.44;4973810;28;20050;-67
2023/09/09 08:06:02;;;;;;;92.13;83.43;;;;;;;21.67;100.00;101532.09;4982075;28;20382;-67
2023/09/09 08:08:28;;;;;;;91.47;83.50;;;;;;;21.97;100.00;101530.25;4983868;28;20023;-67
2023/09/09 08:10:53;;;;;;;91.30;83.13;;;;;;;22.25;100.00;101540.66;4987700;28;20395;-65
2023/09/09 08:13:19;;;;;;;88.30;80.55;;;;;;;22.52;100.00;101535.22;4984486;28;20286;-66
2023/09/09 08:15:44;;;;;;;87.47;79.55;;;;;;;22.79;100.00;101530.63;4987298;28;20038;-67
2023/09/09 08:18:09;;;;;;;83.90;76.60;;;;;;;23.14;100.00;101541.75;4984174;28;20027;-67
2023/09/09 08:20:35;;;;;;;87.13;79.30;;;;;;;23.36;100.00;101552.13;4987742;28;20038;-66
2023/09/09 08:23:00;;;;;;;90.22;82.28;;;;;;;23.62;100.00;101548.31;4985354;28;20018;-67
2023/09/09 08:25:26;;;;;;;84.78;77.38;;;;;;;23.73;100.00;101546.44;4987247;28;20145;-66
2023/09/09 08:27:51;;;;;;;82.13;75.00;;;;;;;23.92;100.00;101547.97;4987777;28;20047;-67
2023/09/09 08:30:17;;;;;;;83.85;76.43;;;;;;;24.02;100.00;101548.72;4986626;28;20022;-67
2023/09/09 08:32:42;;;;;;;80.72;73.80;;;;;;;24.19;100.00;101560.00;4985255;28;20487;-67
2023/09/09 08:35:07;;;;;;;78.15;71.03;;;;;;;24.36;100.00;101555.38;4988340;28;20022;-68
2023/09/09 08:37:33;;;;;;;79.43;72.30;;;;;;;24.44;100.00;101559.66;4982370;28;20050;-68
2023/09/09 08:39:58;;;;;;;80.45;73.38;;;;;;;24.42;100.00;101556.16;4971360;28;20664;-68
2023/09/09 08:42:35;;;;;;;73.72;67.22;;;;;;;24.46;100.00;101560.50;4979525;28;20030;-68
2023/09/09 08:45:24;;;;;;;72.20;65.80;;;;;;;24.59;100.00;101562.97;4978842;28;20498;-68
2023/09/09 08:47:55;;;;;;;72.35;65.85;;;;;;;24.72;100.00;101568.06;4987920;28;20184;-68
2023/09/09 08:50:24;;;;;;;68.40;62.45;;;;;;;24.76;100.00;101565.34;4986581;28;20019;-68
2023/09/09 08:52:53;;;;;;;67.28;61.25;;;;;;;24.91;100.00;101564.22;4988025;28;20034;-68
2023/09/09 08:55:19;;;;;;;66.63;60.53;;;;;;;24.96;100.00;101565.91;4980465;28;20041;-68
2023/09/09 08:57:46;;;;;;;55.45;50.50;;;;;;;25.00;100.00;101568.50;4987987;28;20093;-68
2023/09/09 09:00:13;;;;;;;57.10;52.08;;;;;;;25.09;100.00;101571.88;4985087;28;20090;-68
2023/09/09 09:02:39;;;;;;;51.80;47.30;;;;;;;25.15;100.00;101562.03;4984306;28;20018;-68
2023/09/09 09:05:05;;;;;;;48.60;44.25;;;;;;;25.17;100.00;101568.19;4981125;28;20086;-69
2023/09/09 09:07:33;;;;;;;55.25;50.50;;;;;;;25.27;100.00;101568.03;4974872;28;20023;-69
2023/09/09 09:09:59;;;;;;;51.05;46.55;;;;;;;25.38;100.00;101563.38;4977048;28;20434;-68
2023/09/09 09:12:27;;;;;;;45.63;41.60;;;;;;;25.50;100.00;101566.72;4976235;28;20061;-68
2023/09/09 09:14:52;;;;;;;42.20;38.08;;;;;;;25.63;100.00;101570.88;4975880;28;20107;-68
2023/09/09 09:17:18;;;;;;;38.22;34.92;;;;;;;25.73;100.00;101568.06;4978144;28;20363;-68
2023/09/09 09:19:43;;;;;;;35.47;32.22;;;;;;;25.82;100.00;101572.28;4976667;28;20023;-68
2023/09/09 09:22:09;;;;;;;31.48;28.58;;;;;;;25.89;98.79;101573.91;4978056;28;20121;-68
2023/09/09 09:24:44;;;;;;;35.80;32.50;;;;;;;25.97;100.00;101581.72;4980265;28;20022;-67
2023/09/09 09:27:13;;;;;;;37.85;34.35;;;;;;;26.05;100.00;101570.97;4983631;28;20054;-68
2023/09/09 09:29:45;;;;;;;37.13;33.67;;;;;;;26.09;100.00;101575.28;4976348;28;20058;-66
2023/09/09 09:32:11;;;;;;;38.20;34.55;;;;;;;26.19;99.98;101575.97;4971361;28;20077;-65
2023/09/09 09:34:37;;;;;;;33.72;30.52;;;;;;;26.24;100.00;101574.94;4985394;28;20026;-66
2023/09/09 09:37:10;;;;;;;30.83;28.02;;;;;;;26.31;98.85;101574.78;4976972;28;20537;-67
2023/09/09 09:39:36;;;;;;;35.85;32.50;;;;;;;26.37;97.20;101569.38;4981634;28;20093;-65
2023/09/09 09:42:02;;;;;;;29.77;27.30;;;;;;;26.40;98.64;101569.31;4986365;28;20478;-66
2023/09/09 09:44:28;;;;;;;30.58;27.83;;;;;;;26.34;99.11;101570.28;4985537;28;20033;-66
2023/09/09 09:47:03;;;;;;;32.75;29.83;;;;;;;26.36;96.38;101563.19;4979953;28;20036;-66
2023/09/09 09:49:41;;;;;;;26.15;23.73;;;;;;;26.41;96.24;101575.50;4972275;28;20031;-67
2023/09/09 09:52:07;;;;;;;30.38;27.58;;;;;;;26.40;97.50;101569.31;4983668;28;20026;-66
2023/09/09 09:54:36;;;;;;;26.70;24.33;;;;;;;26.44;97.26;101567.44;4982750;28;20111;-66
2023/09/09 09:57:03;;;;;;;30.50;27.70;;;;;;;26.50;97.72;101567.28;4984079;28;20034;-66
2023/09/09 09:59:34;;;;;;;27.40;24.70;;;;;;;26.61;97.49;101567.03;4986268;28;20026;-67
2023/09/09 10:02:00;;;;;;;22.77;20.10;;;;;;;26.69;94.78;101572.16;4986354;28;20085;-66
2023/09/09 10:04:27;;;;;;;25.48;23.13;;;;;;;26.77;95.31;101567.53;4987241;28;20073;-66
2023/09/09 10:06:59;;;;;;;22.85;20.75;;;;;;;26.81;96.01;101568.31;4985602;28;20056;-66
2023/09/09 10:09:48;;;;;;;28.13;25.67;;;;;;;26.87;95.84;101568.19;4979647;28;20192;-64
2023/09/09 10:12:40;;;;;;;20.67;18.77;;;;;;;26.92;94.23;101570.72;4982957;28;20045;-66
2023/09/09 10:15:06;;;;;;;16.38;14.85;;;;;;;26.92;91.76;101562.75;4980093;28;20126;-66
2023/09/09 10:17:32;;;;;;;12.07;10.98;;;;;;;26.92;87.20;101565.41;4983737;28;20026;-66
2023/09/09 10:20:01;;;;;;;12.05;11.05;;;;;;;26.92;89.44;101560.97;4980912;28;20018;-66
2023/09/09 10:22:27;;;;;;;10.98;10.05;;;;;;;26.98;89.66;101570.56;4983330;28;20040;-67
2023/09/09 10:24:52;;;;;;;13.20;12.10;;;;;;;27.07;88.22;101566.81;4981018;28;20541;-67
2023/09/09 10:27:19;;;;;;;11.40;10.35;;;;;;;27.20;88.87;101565.56;4982628;28;20049;-66
2023/09/09 10:29:45;;;;;;;13.15;11.65;;;;;;;27.28;85.74;101568.03;4970921;28;20022;-66
2023/09/09 10:32:12;;;;;;;10.38;9.50;;;;;;;27.32;84.42;101567.03;4972997;28;20540;-67
2023/09/09 10:34:39;;;;;;;10.00;9.10;;;;;;;27.39;83.96;101574.84;4971254;28;20033;-65
2023/09/09 10:37:06;;;;;;;9.85;9.00;;;;;;;27.46;83.26;101565.78;4982399;28;20054;-66
2023/09/09 10:39:32;;;;;;;12.63;8.52;;;;;;;27.53;81.62;101566.47;4986326;28;20085;-66
2023/09/09 10:41:58;;;;;;;12.38;11.23;;;;;;;27.58;84.07;101565.41;4984820;28;20553;-65
2023/09/09 10:44:23;;;;;;;10.27;9.23;;;;;;;27.57;80.58;101566.34;4986512;28;20041;-66
2023/09/09 10:46:56;;;;;;;10.63;6.63;;;;;;;27.60;79.26;101556.50;4984747;28;20054;-66
2023/09/09 10:49:30;;;;;;;7.13;6.53;;;;;;;27.69;78.16;101561.56;4977340;28;20074;-66
2023/09/09 10:51:55;;;;;;;7.05;6.43;;;;;;;27.68;72.91;101557.19;4971341;28;20022;-67
2023/09/09 10:54:25;;;;;;;7.75;5.82;;;;;;;27.75;76.18;101564.09;4975245;28;20502;-67
2023/09/09 10:56:52;;;;;;;9.65;7.57;;;;;;;27.86;77.70;101558.47;4974914;28;20078;-66
2023/09/09 10:59:27;;;;;;;9.88;8.88;;;;;;;27.87;74.00;101564.63;4990514;28;20030;-65